Airfield :







YOU CAN JOIN US ON...

 
LOGIN :

Register | Disclaimer

   EN    FR    IT 

 









Legend :    VFR   Marginal VFR   IFR   Intensive IFR   Very Intensive IFR
Visi :
Ceiling :
>= 8 km
>= 3000ft
5 to 8 km
1000 to 3000 ft
1500m to 5 km
500 to 1000 ft
800 to 1500m
200 to 500 ft
< 800m
< 200 ft
Symbols :   Thunderstorms  Fog  Heavy snow  Heavy precipitations  Wind > 20 kt







- Airport Elevation : 454 ft


KIZG - Eastern Slopes Regional

CURRENT METAR :
  • 211954Z AUTO 21004KT 2SM -SN BR BKN016 OVC022 M01/M02 A2971 RMK AO2 SLP068 P0000 T10061022

EXPIRED METARs :
  • 211941Z AUTO 00000KT 2 1/2SM -SN BR OVC016 M01/M02 A2971 RMK AO2 P0000 T10061022
  • 211854Z AUTO 00000KT 4SM -SN BR OVC019 M01/M03 A2973 RMK AO2 SLP073 P0000 T10061028
  • 211847Z AUTO 00000KT 2SM -SN BR BKN019 OVC025 M01/M03 A2973 RMK AO2 P0000 T10111028
  • 211824Z AUTO 00000KT 1 1/2SM -SN BR OVC020 M01/M03 A2974 RMK AO2 P0000 T10111028
  • 211812Z AUTO 27003KT 2SM -SN BR BKN020 OVC028 M01/M03 A2976 RMK AO2 P0000 T10111033
  • 211804Z AUTO VRB03KT 3SM -SN BR BKN022 OVC029 M01/M03 A2976 RMK AO2 P0000 T10111033
  • 211754Z AUTO 23003KT 7SM -SN SCT022 BKN030 OVC048 M01/M04 A2976 RMK AO2 SLP086 P0000 60000 I6000 T10111039 11006 21094 56035
  • 211740Z AUTO 22003KT 4SM -SN FEW024 BKN030 OVC048 M01/M04 A2977 RMK AO2 P0000 T10111039
  • 211730Z AUTO 22005KT 2 1/2SM -SN BKN032 OVC047 M01/M04 A2978 RMK AO2 P0000 T10111039

TAF N/A
KZBW FIR / North America



MET'MAP, your aeronautical weather chart ! - Copyright ORBIFLY December 2007 - Disclaimer

ORBIFLY MET'MAP TEAM :

Programming & Development : Alexandra Zaïnal
Concept & Development : Baudouin d'Aumeries
Co-Development & Prog : Marc-Olivier Méhu
Technical & hardware support : Manuel Goepfert

Contact : metmap@orbifly.com




SOURCES & CREDITS :

   NOAA